Hovedside
METAR-TAF:

METAR-TAF

Lufthavner :

Kairo, Egypt

breddegrad: 30-08N, lengdegrad: 031-24E, høyde over havet: 64 m

Gjeldene værobservasjon

Denne rapporten ble laget for 16 minutter siden, klokken 15:30 UTC
Vind 9 kt fra Nordøst
Temperatur 23°C
Luftfuktighet 16%
Trykk 1017 hPa
Sikt 10 km eller mer
ingen skyer under 1500 m og ingen bygeskyer

METAR: HECA 201530Z 04009KT CAVOK 23/M04 Q1017 NOSIG

Tid: 17:46 (15:46 UTC)

Varsel

Denne rapporten ble laget for 4 timer og 46 minutter siden, klokken 11:00 UTC
Varsel gyldig fra 20. klokken 12 UTC til 21. klokken 18 UTC
Vind 12 kt fra Nordøst
Sikt 10 km eller mer
ingen skyer under 1500 m og ingen bygeskyer
Sannsynlighet 40% :
Midlertidig
fra 21. klokken 00 UTC til 21. klokken 07 UTC
Vind 3 kt fra skiftende retning
Sikt: 4000 m
dis

TAF: HECA 201100Z 2012/2118 05012KT CAVOK PROB40 TEMPO 2100/2107 VRB03KT 4000 HZ NSC

Værobservasjoner og værvarsel for over 4000 flyplasser (METAR- og TAF-rapporter).

Tilgjengelige stasjoner er representert av de røde og gule prikkene på kartet.

Hold musepekeren over prikken for å se navnet på stasjonen.

Klikk så for å se værobservasjoner og -varsler.

For å forandre kartet kan du klikke på den grønne knappen med svart kryss for å zoome inn, på den grønne knappen med strek for å zoome ut, eller på de grønne pilene for å se tilstøtende kart.


METAR-TAF: